createdAt,value
2023-07-30T00:00:51.661Z,100738.81
2023-07-30T00:03:20.356Z,100742.75
2023-07-30T00:05:55.199Z,100732.81
2023-07-30T00:08:25.590Z,100737.50
2023-07-30T00:10:53.924Z,100741.97
2023-07-30T00:13:22.485Z,100747.53
2023-07-30T00:15:51.124Z,100742.38
2023-07-30T00:18:20.040Z,100744.50
2023-07-30T00:20:48.451Z,100738.38
2023-07-30T00:23:16.942Z,100734.31
2023-07-30T00:25:46.754Z,100738.28
2023-07-30T00:28:15.226Z,100737.31
2023-07-30T00:30:43.559Z,100748.38
2023-07-30T00:33:12.136Z,100747.66
2023-07-30T00:35:40.932Z,100745.34
2023-07-30T00:38:09.337Z,100741.75
2023-07-30T00:40:42.701Z,100742.63
2023-07-30T00:43:12.783Z,100735.53
2023-07-30T00:45:44.847Z,100745.75
2023-07-30T00:48:13.753Z,100745.50
2023-07-30T00:50:42.670Z,100748.53
2023-07-30T00:53:14.553Z,100745.16
2023-07-30T00:55:42.909Z,100751.94
2023-07-30T00:58:12.814Z,100751.94
2023-07-30T01:00:41.935Z,100753.75
2023-07-30T01:03:10.433Z,100749.91
2023-07-30T01:05:39.213Z,100748.81
2023-07-30T01:08:11.525Z,100755.09
2023-07-30T01:10:43.937Z,100758.19
2023-07-30T01:13:14.681Z,100754.50
2023-07-30T01:15:44.926Z,100758.13
2023-07-30T01:18:13.421Z,100755.47
2023-07-30T01:20:42.507Z,100755.72
2023-07-30T01:23:12.335Z,100759.47
2023-07-30T01:25:42.585Z,100758.75
2023-07-30T01:28:15.054Z,100769.84
2023-07-30T01:30:44.354Z,100772.34
2023-07-30T01:33:13.557Z,100772.97
2023-07-30T01:35:45.466Z,100777.44
2023-07-30T01:38:16.206Z,100770.47
2023-07-30T01:40:44.709Z,100773.97
2023-07-30T01:43:12.984Z,100774.66
2023-07-30T01:45:42.102Z,100776.59
2023-07-30T01:48:10.824Z,100781.91
2023-07-30T01:50:39.246Z,100791.88
2023-07-30T01:53:07.641Z,100782.25
2023-07-30T01:55:37.414Z,100785.28
2023-07-30T01:58:08.339Z,100779.50
2023-07-30T02:00:37.412Z,100782.50
2023-07-30T02:03:05.934Z,100783.97
2023-07-30T02:05:34.482Z,100777.13
2023-07-30T02:08:02.890Z,100788.41
2023-07-30T02:10:31.314Z,100780.22
2023-07-30T02:13:01.160Z,100775.06
2023-07-30T02:15:29.538Z,100776.38
2023-07-30T02:17:57.856Z,100773.75
2023-07-30T02:20:26.283Z,100777.25
2023-07-30T02:22:54.685Z,100771.22
2023-07-30T02:25:23.034Z,100768.59
2023-07-30T02:27:51.549Z,100769.66
2023-07-30T02:30:21.421Z,100771.34
2023-07-30T02:32:49.912Z,100768.59
2023-07-30T02:35:20.436Z,100763.03
2023-07-30T02:37:49.960Z,100759.81
2023-07-30T02:40:18.448Z,100758.00
2023-07-30T02:42:47.062Z,100757.75
2023-07-30T02:45:15.337Z,100762.91
2023-07-30T02:47:45.163Z,100760.88
2023-07-30T02:50:13.582Z,100757.41
2023-07-30T02:52:41.938Z,100755.19
2023-07-30T02:55:10.998Z,100758.72
2023-07-30T02:57:39.359Z,100760.13
2023-07-30T03:00:09.819Z,100756.41
2023-07-30T03:02:38.333Z,100754.47
2023-07-30T03:05:08.966Z,100758.03
2023-07-30T03:07:37.824Z,100754.53
2023-07-30T03:10:06.597Z,100751.31
2023-07-30T03:12:35.024Z,100753.00
2023-07-30T03:15:03.434Z,100755.53
2023-07-30T03:17:31.922Z,100761.97
2023-07-30T03:20:00.308Z,100758.59
2023-07-30T03:22:30.191Z,100759.47
2023-07-30T03:24:58.601Z,100758.59
2023-07-30T03:27:27.010Z,100762.59
2023-07-30T03:29:55.513Z,100764.56
2023-07-30T03:32:23.933Z,100767.34
2023-07-30T03:34:52.353Z,100764.00
2023-07-30T03:37:20.695Z,100764.44
2023-07-30T03:39:50.425Z,100760.13
2023-07-30T03:42:18.809Z,100761.78
2023-07-30T03:44:47.157Z,100773.56
2023-07-30T03:47:15.503Z,100768.28
2023-07-30T03:49:43.983Z,100772.34
2023-07-30T03:52:13.322Z,100765.25
2023-07-30T03:54:41.653Z,100775.00
2023-07-30T03:57:11.419Z,100779.06
2023-07-30T03:59:39.698Z,100780.28
2023-07-30T04:02:08.176Z,100784.50
2023-07-30T04:04:36.579Z,100784.72
2023-07-30T04:07:05.278Z,100785.81
2023-07-30T04:09:33.643Z,100781.94
2023-07-30T04:12:02.147Z,100780.38
2023-07-30T04:14:31.953Z,100776.66
2023-07-30T04:17:00.481Z,100784.00
2023-07-30T04:19:28.877Z,100784.84
2023-07-30T04:21:57.330Z,100780.53
2023-07-30T04:24:27.175Z,100782.63
2023-07-30T04:26:55.630Z,100783.50
2023-07-30T04:29:24.037Z,100785.75
2023-07-30T04:31:53.933Z,100782.97
2023-07-30T04:34:22.281Z,100789.31
2023-07-30T04:36:50.814Z,100790.16
2023-07-30T04:39:19.364Z,100793.25
2023-07-30T04:41:47.732Z,100787.81
2023-07-30T04:44:16.143Z,100787.81
2023-07-30T04:46:44.444Z,100790.78
2023-07-30T04:49:14.267Z,100800.84
2023-07-30T04:51:42.756Z,100807.56
2023-07-30T04:54:11.138Z,100807.19
2023-07-30T04:56:39.660Z,100808.19
2023-07-30T04:59:07.978Z,100808.47
2023-07-30T05:01:36.735Z,100817.25
2023-07-30T05:04:05.450Z,100810.72
2023-07-30T05:06:35.261Z,100814.78
2023-07-30T05:09:03.731Z,100807.75
2023-07-30T05:11:32.172Z,100802.44
2023-07-30T05:14:02.798Z,100807.09
2023-07-30T05:16:31.328Z,100807.59
2023-07-30T05:18:59.750Z,100810.56
2023-07-30T05:21:28.322Z,100816.69
2023-07-30T05:23:58.093Z,100816.44
2023-07-30T05:26:26.533Z,100813.25
2023-07-30T05:28:54.859Z,100817.16
2023-07-30T05:31:23.320Z,100818.84
2023-07-30T05:33:51.734Z,100826.53
2023-07-30T05:36:20.110Z,100824.78
2023-07-30T05:38:48.420Z,100824.00
2023-07-30T05:41:18.237Z,100819.38
2023-07-30T05:43:46.672Z,100822.34
2023-07-30T05:46:15.085Z,100822.34
2023-07-30T05:48:43.553Z,100824.84
2023-07-30T05:51:11.844Z,100812.84
2023-07-30T05:53:40.256Z,100820.44
2023-07-30T05:56:08.596Z,100818.06
2023-07-30T05:58:38.484Z,100820.31
2023-07-30T06:01:06.877Z,100827.72
2023-07-30T06:03:35.207Z,100826.34
2023-07-30T06:06:04.209Z,100826.03
2023-07-30T06:08:32.599Z,100826.19
2023-07-30T06:11:04.261Z,100828.56
2023-07-30T06:13:32.876Z,100822.16
2023-07-30T06:16:02.670Z,100823.00
2023-07-30T06:18:31.151Z,100818.38
2023-07-30T06:20:59.528Z,100828.75
2023-07-30T06:23:27.933Z,100828.31
2023-07-30T06:25:56.264Z,100814.88
2023-07-30T06:28:24.709Z,100824.41
2023-07-30T06:30:53.195Z,100827.19
2023-07-30T06:33:24.489Z,100823.97
2023-07-30T06:35:54.669Z,100820.06
2023-07-30T06:38:22.889Z,100817.66
2023-07-30T06:40:51.216Z,100827.75
2023-07-30T06:43:19.641Z,100827.31
2023-07-30T06:45:47.989Z,100829.44
2023-07-30T06:48:16.730Z,100830.00
2023-07-30T06:50:46.448Z,100829.69
2023-07-30T06:53:14.771Z,100830.94
2023-07-30T06:55:43.277Z,100827.28
2023-07-30T06:58:12.240Z,100830.50
2023-07-30T07:00:40.602Z,100832.88
2023-07-30T07:03:08.977Z,100826.56
2023-07-30T07:05:37.433Z,100830.50
2023-07-30T07:08:07.260Z,100829.03
2023-07-30T07:10:35.622Z,100837.00
2023-07-30T07:13:03.880Z,100838.81
2023-07-30T07:15:32.300Z,100840.03
2023-07-30T07:18:00.680Z,100847.16
2023-07-30T07:20:29.450Z,100844.03
2023-07-30T07:22:57.793Z,100840.34
2023-07-30T07:25:27.523Z,100843.16
2023-07-30T07:27:57.132Z,100837.69
2023-07-30T07:30:25.725Z,100841.38
2023-07-30T07:32:56.457Z,100837.97
2023-07-30T07:35:24.873Z,100832.88
2023-07-30T07:37:53.133Z,100834.25
2023-07-30T07:40:21.666Z,100848.22
2023-07-30T07:42:51.354Z,100846.00
2023-07-30T07:45:19.739Z,100846.66
2023-07-30T07:47:48.429Z,100849.31
2023-07-30T07:50:17.212Z,100846.66
2023-07-30T07:52:45.497Z,100860.19
2023-07-30T07:55:13.799Z,100861.34
2023-07-30T07:57:42.103Z,100858.94
2023-07-30T08:00:12.916Z,100860.03
2023-07-30T08:02:41.340Z,100858.84
2023-07-30T08:05:10.334Z,100863.84
2023-07-30T08:07:38.718Z,100862.22
2023-07-30T08:10:08.224Z,100874.91
2023-07-30T08:12:36.553Z,100873.09
2023-07-30T08:15:05.346Z,100862.38
2023-07-30T08:17:35.041Z,100865.63
2023-07-30T08:20:03.532Z,100871.53
2023-07-30T08:22:31.854Z,100869.34
2023-07-30T08:25:00.216Z,100863.69
2023-07-30T08:27:28.564Z,100862.16
2023-07-30T08:29:57.003Z,100862.34
2023-07-30T08:32:25.375Z,100865.16
2023-07-30T08:34:55.101Z,100857.81
2023-07-30T08:37:24.602Z,100855.56
2023-07-30T08:39:52.973Z,100869.84
2023-07-30T08:42:21.454Z,100858.88
2023-07-30T08:44:49.738Z,100858.41
2023-07-30T08:47:18.343Z,100861.59
2023-07-30T08:49:46.615Z,100861.28
2023-07-30T08:52:19.333Z,100855.41
2023-07-30T08:54:51.324Z,100860.38
2023-07-30T08:57:21.647Z,100860.75
2023-07-30T08:59:55.263Z,100862.47
2023-07-30T09:02:28.697Z,100865.44
2023-07-30T09:05:00.619Z,100872.94
2023-07-30T09:07:30.439Z,100859.78
2023-07-30T09:09:59.192Z,100863.28
2023-07-30T09:12:32.709Z,100875.81
2023-07-30T09:15:01.417Z,100876.44
2023-07-30T09:17:29.861Z,100881.44
2023-07-30T09:19:58.334Z,100876.44
2023-07-30T09:22:34.511Z,100863.72
2023-07-30T09:25:05.045Z,100869.06
2023-07-30T09:27:34.678Z,100887.47
2023-07-30T09:30:05.409Z,100889.44
2023-07-30T09:32:35.145Z,100873.97
2023-07-30T09:35:08.840Z,100872.81
2023-07-30T09:37:41.951Z,100871.81
2023-07-30T09:40:13.318Z,100882.16
2023-07-30T09:42:44.842Z,100880.81
2023-07-30T09:45:19.619Z,100876.44
2023-07-30T09:47:51.920Z,100882.03
2023-07-30T09:50:20.512Z,100888.31
2023-07-30T09:52:51.722Z,100888.66
2023-07-30T09:55:20.997Z,100893.72
2023-07-30T09:57:49.518Z,100885.84
2023-07-30T10:00:17.964Z,100884.47
2023-07-30T10:02:49.108Z,100874.44
2023-07-30T10:05:19.197Z,100892.34
2023-07-30T10:07:58.553Z,100888.47
2023-07-30T10:10:28.274Z,100895.66
2023-07-30T10:13:00.098Z,100894.84
2023-07-30T10:15:28.693Z,100897.78
2023-07-30T10:18:02.283Z,100898.50
2023-07-30T10:20:34.158Z,100889.56
2023-07-30T10:23:06.533Z,100904.13
2023-07-30T10:25:45.874Z,100911.16
2023-07-30T10:28:29.341Z,100909.34
2023-07-30T10:30:59.138Z,100910.53
2023-07-30T10:33:46.734Z,100918.06
2023-07-30T10:36:15.368Z,100915.56
2023-07-30T10:38:45.263Z,100921.91
2023-07-30T10:41:17.877Z,100918.38
2023-07-30T10:43:46.567Z,100908.50
2023-07-30T10:46:16.377Z,100905.50
2023-07-30T10:48:46.132Z,100916.91
2023-07-30T10:51:16.822Z,100909.53
2023-07-30T10:53:47.118Z,100917.38
2023-07-30T10:56:16.186Z,100920.69
2023-07-30T10:58:46.411Z,100928.91
2023-07-30T11:01:14.913Z,100934.94
2023-07-30T11:03:43.519Z,100940.47
2023-07-30T11:06:11.980Z,100936.75
2023-07-30T11:08:41.981Z,100940.06
2023-07-30T11:11:12.693Z,100933.81
2023-07-30T11:13:42.704Z,100936.03
2023-07-30T11:16:12.294Z,100939.75
2023-07-30T11:18:42.290Z,100943.91
2023-07-30T11:21:12.093Z,100933.84
2023-07-30T11:23:42.806Z,100926.94
2023-07-30T11:26:16.368Z,100930.47
2023-07-30T11:28:45.122Z,100924.53
2023-07-30T11:31:15.429Z,100929.25
2023-07-30T11:33:45.790Z,100932.44
2023-07-30T11:36:17.907Z,100924.34
2023-07-30T11:38:47.860Z,100927.41
2023-07-30T11:41:18.376Z,100936.00
2023-07-30T11:43:47.434Z,100933.56
2023-07-30T11:46:17.510Z,100931.94
2023-07-30T11:48:47.516Z,100941.44
2023-07-30T11:51:24.426Z,100934.47
2023-07-30T11:53:54.868Z,100939.66
2023-07-30T11:56:26.820Z,100946.16
2023-07-30T11:58:58.437Z,100952.75
2023-07-30T12:01:28.388Z,100959.84
2023-07-30T12:03:57.482Z,100956.84
2023-07-30T12:06:26.203Z,100968.03
2023-07-30T12:08:54.484Z,100969.78
2023-07-30T12:11:26.274Z,100975.78
2023-07-30T12:13:54.629Z,100978.84
2023-07-30T12:16:23.113Z,100971.41
2023-07-30T12:18:51.482Z,100976.91
2023-07-30T12:21:19.837Z,100974.75
2023-07-30T12:23:48.990Z,100975.44
2023-07-30T12:26:17.430Z,100965.34
2023-07-30T12:28:47.260Z,100949.69
2023-07-30T12:31:15.697Z,100958.59
2023-07-30T12:33:44.103Z,100949.09
2023-07-30T12:36:12.514Z,100954.38
2023-07-30T12:38:41.285Z,100958.63
2023-07-30T12:41:09.658Z,100956.47
2023-07-30T12:43:38.077Z,100946.78
2023-07-30T12:46:07.933Z,100956.97
2023-07-30T12:48:36.213Z,100955.25
2023-07-30T12:51:04.953Z,100959.50
2023-07-30T12:53:33.373Z,100954.34
2023-07-30T12:56:01.923Z,100954.66
2023-07-30T12:58:30.267Z,100949.50
2023-07-30T13:00:58.541Z,100943.34
2023-07-30T13:03:28.468Z,100951.66
2023-07-30T13:05:56.866Z,100945.06
2023-07-30T13:08:25.189Z,100957.47
2023-07-30T13:10:53.522Z,100945.97
2023-07-30T13:13:21.991Z,100952.69
2023-07-30T13:15:50.362Z,100946.25
2023-07-30T13:18:18.747Z,100950.22
2023-07-30T13:20:48.682Z,100953.50
2023-07-30T13:23:17.071Z,100953.50
2023-07-30T13:25:45.400Z,100970.91
2023-07-30T13:28:14.183Z,100973.69
2023-07-30T13:30:42.505Z,100972.75
2023-07-30T13:33:10.872Z,100955.59
2023-07-30T13:35:39.543Z,100957.84
2023-07-30T13:38:09.304Z,100966.00
2023-07-30T13:40:37.704Z,100969.00
2023-07-30T13:43:06.071Z,100962.06
2023-07-30T13:45:34.523Z,100955.81
2023-07-30T13:48:02.933Z,100963.06
2023-07-30T13:50:31.410Z,100955.97
2023-07-30T13:52:59.840Z,100975.13
2023-07-30T13:55:29.587Z,100959.16
2023-07-30T13:57:57.960Z,100964.31
2023-07-30T14:00:26.387Z,100963.31
2023-07-30T14:02:54.891Z,100960.31
2023-07-30T14:05:23.389Z,100969.06
2023-07-30T14:07:55.054Z,100969.47
2023-07-30T14:10:23.804Z,100966.34
2023-07-30T14:12:53.623Z,100962.06
2023-07-30T14:15:22.036Z,100968.56
2023-07-30T14:17:52.101Z,100971.50
2023-07-30T14:20:20.533Z,100966.88
2023-07-30T14:22:49.798Z,100965.00
2023-07-30T14:25:18.269Z,100971.53
2023-07-30T14:27:46.708Z,100982.75
2023-07-30T14:30:16.508Z,100973.66
2023-07-30T14:32:44.871Z,100969.22
2023-07-30T14:35:13.283Z,100976.63
2023-07-30T14:37:41.607Z,100985.44
2023-07-30T14:40:11.019Z,100975.09
2023-07-30T14:42:41.008Z,100973.66
2023-07-30T14:45:10.823Z,100978.25
2023-07-30T14:47:40.682Z,100985.34
2023-07-30T14:50:09.842Z,100970.97
2023-07-30T14:52:38.225Z,100975.50
2023-07-30T14:55:07.306Z,100979.50
2023-07-30T14:57:35.814Z,100977.38
2023-07-30T15:00:04.597Z,100996.72
2023-07-30T15:02:35.758Z,100983.63
2023-07-30T15:05:06.104Z,100978.28
2023-07-30T15:07:34.585Z,100978.25
2023-07-30T15:10:03.919Z,100981.34
2023-07-30T15:12:32.653Z,100964.75
2023-07-30T15:15:00.920Z,100975.31
2023-07-30T15:17:29.576Z,100968.97
2023-07-30T15:20:00.507Z,100980.91
2023-07-30T15:22:30.384Z,100966.78
2023-07-30T15:24:58.895Z,100972.72
2023-07-30T15:27:27.292Z,100977.03
2023-07-30T15:29:55.622Z,100977.81
2023-07-30T15:32:25.036Z,100979.13
2023-07-30T15:34:53.391Z,100968.56
2023-07-30T15:37:21.785Z,100966.28
2023-07-30T15:39:51.461Z,100976.84
2023-07-30T15:42:19.936Z,100987.81
2023-07-30T15:44:48.239Z,100976.59
2023-07-30T15:47:16.558Z,100964.88
2023-07-30T15:49:44.885Z,100963.84
2023-07-30T15:52:13.172Z,100977.19
2023-07-30T15:54:41.582Z,100969.69
2023-07-30T15:57:12.996Z,100974.88
2023-07-30T15:59:46.887Z,100975.34
2023-07-30T16:02:15.339Z,100982.28
2023-07-30T16:04:43.820Z,100971.78
2023-07-30T16:07:13.710Z,100962.00
2023-07-30T16:09:42.520Z,100976.25
2023-07-30T16:12:13.893Z,100983.06
2023-07-30T16:14:42.347Z,100982.59
2023-07-30T16:17:10.708Z,100975.81
2023-07-30T16:19:39.172Z,100979.19
2023-07-30T16:22:08.260Z,100981.28
2023-07-30T16:24:36.666Z,100965.03
2023-07-30T16:27:05.238Z,100970.75
2023-07-30T16:29:35.201Z,100973.25
2023-07-30T16:32:03.548Z,100977.28
2023-07-30T16:34:31.966Z,100968.75
2023-07-30T16:37:00.265Z,100970.81
2023-07-30T16:39:28.771Z,100957.09
2023-07-30T16:41:57.071Z,100958.84
2023-07-30T16:44:25.642Z,100963.34
2023-07-30T16:46:55.334Z,100962.16
2023-07-30T16:49:23.698Z,100961.25
2023-07-30T16:51:52.055Z,100961.53
2023-07-30T16:54:20.366Z,100949.38
2023-07-30T16:56:49.049Z,100951.91
2023-07-30T16:59:17.447Z,100952.09
2023-07-30T17:01:45.790Z,100959.88
2023-07-30T17:04:15.751Z,100965.63
2023-07-30T17:06:44.225Z,100966.75
2023-07-30T17:11:43.143Z,100976.53
2023-07-30T17:14:11.481Z,100968.84
2023-07-30T17:16:40.143Z,100966.16
2023-07-30T17:19:08.849Z,100969.59
2023-07-30T17:21:38.611Z,100972.44
2023-07-30T17:24:07.128Z,100970.53
2023-07-30T17:26:35.493Z,100967.59
2023-07-30T17:29:04.111Z,100979.41
2023-07-30T17:31:32.671Z,100972.94
2023-07-30T17:34:01.172Z,100974.13
2023-07-30T17:36:29.837Z,100968.81
2023-07-30T17:38:59.593Z,100974.34
2023-07-30T17:41:27.910Z,100973.16
2023-07-30T17:43:56.296Z,100972.22
2023-07-30T17:46:24.711Z,100978.22
2023-07-30T17:48:53.162Z,100972.41
2023-07-30T17:51:21.638Z,100976.75
2023-07-30T17:53:53.306Z,100971.41
2023-07-30T17:56:23.649Z,100974.06
2023-07-30T17:58:52.000Z,100980.44
2023-07-30T18:01:20.517Z,100981.09
2023-07-30T18:03:49.017Z,100982.59
2023-07-30T18:06:17.662Z,100986.75
2023-07-30T18:08:46.159Z,100997.75
2023-07-30T18:11:14.545Z,100993.72
2023-07-30T18:13:44.349Z,100998.56
2023-07-30T18:16:12.960Z,101007.31
2023-07-30T18:18:41.487Z,101002.97
2023-07-30T18:21:10.000Z,100997.63
2023-07-30T18:23:39.764Z,100990.16
2023-07-30T18:26:08.475Z,100992.19
2023-07-30T18:28:36.853Z,100995.69
2023-07-30T18:31:06.699Z,101000.03
2023-07-30T18:33:35.095Z,101006.84
2023-07-30T18:36:03.732Z,100997.53
2023-07-30T18:38:33.458Z,101010.47
2023-07-30T18:41:08.644Z,101000.69
2023-07-30T18:43:37.028Z,101002.13
2023-07-30T18:46:06.718Z,101009.75
2023-07-30T18:48:35.381Z,101003.63
2023-07-30T18:51:03.680Z,101005.97
2023-07-30T18:53:32.141Z,101005.06
2023-07-30T18:56:02.651Z,101002.09
2023-07-30T18:58:31.018Z,101002.81
2023-07-30T19:00:59.449Z,101005.56
2023-07-30T19:03:29.253Z,100998.53
2023-07-30T19:05:58.873Z,100998.53
2023-07-30T19:08:27.349Z,101004.59
2023-07-30T19:10:55.663Z,101012.94
2023-07-30T19:13:23.950Z,101013.19
2023-07-30T19:15:52.314Z,101005.53
2023-07-30T19:18:20.858Z,101009.13
2023-07-30T19:20:50.625Z,101009.34
2023-07-30T19:23:19.231Z,101012.00
2023-07-30T19:25:51.366Z,101004.97
2023-07-30T19:28:21.323Z,101010.28
2023-07-30T19:30:49.952Z,101015.09
2023-07-30T19:33:18.313Z,101020.56
2023-07-30T19:35:51.196Z,101018.56
2023-07-30T19:38:25.520Z,101015.75
2023-07-30T19:40:56.285Z,101015.63
2023-07-30T19:43:25.613Z,101020.97
2023-07-30T19:45:54.619Z,101011.75
2023-07-30T19:48:23.706Z,101011.34
2023-07-30T19:50:53.059Z,101008.38
2023-07-30T19:53:24.490Z,101008.97
2023-07-30T19:55:53.428Z,101004.91
2023-07-30T19:58:27.454Z,101002.78
2023-07-30T20:00:56.032Z,100991.91
2023-07-30T20:03:24.687Z,100987.28
2023-07-30T20:05:53.245Z,100979.84
2023-07-30T20:08:23.026Z,100976.22
2023-07-30T20:10:55.128Z,100973.56
2023-07-30T20:13:23.592Z,100968.13
2023-07-30T20:15:53.164Z,100967.72
2023-07-30T20:18:21.501Z,100969.81
2023-07-30T20:20:49.893Z,100967.41
2023-07-30T20:23:23.375Z,100971.47
2023-07-30T20:25:51.708Z,100965.47
2023-07-30T20:28:23.318Z,100968.53
2023-07-30T20:30:51.979Z,100956.25
2023-07-30T20:33:20.218Z,100953.97
2023-07-30T20:35:48.766Z,100940.03
2023-07-30T20:38:17.017Z,100943.22
2023-07-30T20:40:46.674Z,100946.59
2023-07-30T20:43:15.026Z,100949.25
2023-07-30T20:45:43.437Z,100966.81
2023-07-30T20:48:11.753Z,100964.75
2023-07-30T20:50:40.424Z,100944.19
2023-07-30T20:53:08.708Z,100945.41
2023-07-30T20:55:37.120Z,100943.34
2023-07-30T20:58:07.110Z,100950.19
2023-07-30T21:00:35.526Z,100946.00
2023-07-30T21:03:04.097Z,100947.69
2023-07-30T21:05:32.749Z,100953.25
2023-07-30T21:08:01.034Z,100955.91
2023-07-30T21:10:29.508Z,100949.34
2023-07-30T21:12:57.805Z,100951.03
2023-07-30T21:15:27.640Z,100950.03
2023-07-30T21:17:56.085Z,100950.44
2023-07-30T21:20:25.058Z,100954.63
2023-07-30T21:22:53.372Z,100955.75
2023-07-30T21:25:21.662Z,100955.47
2023-07-30T21:27:50.082Z,100955.59
2023-07-30T21:30:19.394Z,100946.38
2023-07-30T21:32:49.374Z,100955.75
2023-07-30T21:35:18.456Z,100943.44
2023-07-30T21:37:46.767Z,100955.88
2023-07-30T21:40:15.257Z,100947.50
2023-07-30T21:42:45.529Z,100947.78
2023-07-30T21:45:13.852Z,100944.81
2023-07-30T21:47:42.249Z,100942.75
2023-07-30T21:50:12.698Z,100938.38
2023-07-30T21:52:42.532Z,100933.63
2023-07-30T21:55:11.730Z,100924.09
2023-07-30T21:57:40.134Z,100931.50
2023-07-30T22:00:09.973Z,100924.50
2023-07-30T22:02:38.566Z,100914.44
2023-07-30T22:05:07.827Z,100913.84
2023-07-30T22:07:37.721Z,100913.22
2023-07-30T22:10:07.069Z,100900.16
2023-07-30T22:12:35.389Z,100896.47
2023-07-30T22:15:03.676Z,100895.22
2023-07-30T22:17:33.411Z,100898.13
2023-07-30T22:20:01.935Z,100899.94
2023-07-30T22:22:30.391Z,100898.78
2023-07-30T22:25:00.099Z,100890.44
2023-07-30T22:27:28.494Z,100900.69
2023-07-30T22:29:56.804Z,100912.75
2023-07-30T22:32:25.282Z,100899.97
2023-07-30T22:34:53.796Z,100893.72
2023-07-30T22:37:22.190Z,100890.47
2023-07-30T22:39:50.754Z,100887.41
2023-07-30T22:42:21.332Z,100886.09
2023-07-30T22:44:49.720Z,100881.50
2023-07-30T22:47:18.154Z,100880.69
2023-07-30T22:49:46.637Z,100889.16
2023-07-30T22:52:15.280Z,100897.56
2023-07-30T22:54:43.755Z,100878.50
2023-07-30T22:57:12.124Z,100879.00
2023-07-30T22:59:41.769Z,100886.00
2023-07-30T23:02:13.120Z,100872.84
2023-07-30T23:04:41.504Z,100864.03
2023-07-30T23:07:09.804Z,100876.75
2023-07-30T23:09:38.077Z,100878.50
2023-07-30T23:12:07.381Z,100871.00
2023-07-30T23:14:35.706Z,100877.91
2023-07-30T23:17:05.881Z,100878.78
2023-07-30T23:19:34.446Z,100866.47
2023-07-30T23:22:05.063Z,100860.88
2023-07-30T23:24:35.234Z,100858.53
2023-07-30T23:27:03.611Z,100860.22
2023-07-30T23:29:31.886Z,100863.19
2023-07-30T23:32:00.231Z,100851.63
2023-07-30T23:34:29.900Z,100851.56
2023-07-30T23:36:58.164Z,100857.44
2023-07-30T23:39:26.433Z,100854.66
2023-07-30T23:41:54.873Z,100850.19
2023-07-30T23:44:23.090Z,100854.19
2023-07-30T23:46:51.429Z,100852.59
2023-07-30T23:49:19.703Z,100852.88
2023-07-30T23:51:52.536Z,100852.59
2023-07-30T23:54:20.886Z,100843.72
2023-07-30T23:56:49.202Z,100840.69
2023-07-30T23:59:19.745Z,100838.81
